sensor_id;sensor_type;location;lat;lon;timestamp;pressure;altitude;pressure_sealevel;temperature;humidity
26376;BME280;30544;42.196;24.336;2023-01-30T00:01:15;99539.47;;;4.23;67.82
26376;BME280;30544;42.196;24.336;2023-01-30T00:03:42;99542.16;;;4.17;67.57
26376;BME280;30544;42.196;24.336;2023-01-30T00:06:10;99544.03;;;3.88;67.80
26376;BME280;30544;42.196;24.336;2023-01-30T00:08:37;99541.91;;;4.12;68.26
26376;BME280;30544;42.196;24.336;2023-01-30T00:11:05;99544.72;;;3.97;68.15
26376;BME280;30544;42.196;24.336;2023-01-30T00:13:32;99545.78;;;3.75;69.61
26376;BME280;30544;42.196;24.336;2023-01-30T00:15:59;99543.84;;;3.90;69.18
26376;BME280;30544;42.196;24.336;2023-01-30T00:18:26;99548.00;;;3.86;69.80
26376;BME280;30544;42.196;24.336;2023-01-30T00:20:56;99537.47;;;4.11;68.03
26376;BME280;30544;42.196;24.336;2023-01-30T00:23:26;99536.44;;;3.69;69.80
26376;BME280;30544;42.196;24.336;2023-01-30T00:25:53;99540.34;;;4.03;68.81
26376;BME280;30544;42.196;24.336;2023-01-30T00:28:20;99543.69;;;3.98;69.25
26376;BME280;30544;42.196;24.336;2023-01-30T00:30:48;99533.31;;;3.72;69.30
26376;BME280;30544;42.196;24.336;2023-01-30T00:33:16;99533.13;;;3.74;70.76
26376;BME280;30544;42.196;24.336;2023-01-30T00:35:43;99536.38;;;3.84;69.63
26376;BME280;30544;42.196;24.336;2023-01-30T00:38:10;99530.34;;;3.95;69.44
26376;BME280;30544;42.196;24.336;2023-01-30T00:40:38;99533.13;;;3.74;69.68
26376;BME280;30544;42.196;24.336;2023-01-30T00:43:05;99532.47;;;3.93;68.80
26376;BME280;30544;42.196;24.336;2023-01-30T00:45:51;99527.22;;;3.98;69.13
26376;BME280;30544;42.196;24.336;2023-01-30T00:48:37;99533.03;;;4.10;68.90
26376;BME280;30544;42.196;24.336;2023-01-30T00:51:04;99536.06;;;3.72;69.27
26376;BME280;30544;42.196;24.336;2023-01-30T00:53:31;99528.88;;;3.71;68.29
26376;BME280;30544;42.196;24.336;2023-01-30T00:55:59;99536.56;;;3.82;68.14
26376;BME280;30544;42.196;24.336;2023-01-30T00:58:25;99535.66;;;3.75;68.45
26376;BME280;30544;42.196;24.336;2023-01-30T01:00:52;99536.97;;;3.79;67.99
26376;BME280;30544;42.196;24.336;2023-01-30T01:03:20;99536.13;;;3.79;68.25
26376;BME280;30544;42.196;24.336;2023-01-30T01:05:47;99530.50;;;3.87;67.63
26376;BME280;30544;42.196;24.336;2023-01-30T01:08:14;99538.78;;;3.93;67.71
26376;BME280;30544;42.196;24.336;2023-01-30T01:10:41;99531.34;;;3.87;67.96
26376;BME280;30544;42.196;24.336;2023-01-30T01:13:09;99533.78;;;3.54;67.50
26376;BME280;30544;42.196;24.336;2023-01-30T01:15:36;99531.69;;;3.78;67.89
26376;BME280;30544;42.196;24.336;2023-01-30T01:18:03;99529.47;;;3.88;66.89
26376;BME280;30544;42.196;24.336;2023-01-30T01:20:30;99526.44;;;3.83;67.17
26376;BME280;30544;42.196;24.336;2023-01-30T01:22:57;99523.91;;;3.81;66.28
26376;BME280;30544;42.196;24.336;2023-01-30T01:25:24;99520.94;;;3.83;66.81
26376;BME280;30544;42.196;24.336;2023-01-30T01:27:52;99523.19;;;3.73;66.30
26376;BME280;30544;42.196;24.336;2023-01-30T01:30:21;99513.34;;;3.57;66.56
26376;BME280;30544;42.196;24.336;2023-01-30T01:32:47;99515.16;;;3.71;66.70
26376;BME280;30544;42.196;24.336;2023-01-30T01:35:14;99507.88;;;3.85;66.83
26376;BME280;30544;42.196;24.336;2023-01-30T01:37:41;99510.84;;;3.62;66.70
26376;BME280;30544;42.196;24.336;2023-01-30T01:40:15;99510.81;;;3.83;67.14
26376;BME280;30544;42.196;24.336;2023-01-30T01:43:01;99511.22;;;3.38;68.24
26376;BME280;30544;42.196;24.336;2023-01-30T01:45:29;99506.72;;;3.51;67.41
26376;BME280;30544;42.196;24.336;2023-01-30T01:47:59;99501.81;;;3.47;67.77
26376;BME280;30544;42.196;24.336;2023-01-30T01:50:30;99499.41;;;3.58;68.42
26376;BME280;30544;42.196;24.336;2023-01-30T01:53:04;99499.16;;;3.53;68.84
26376;BME280;30544;42.196;24.336;2023-01-30T01:55:32;99496.53;;;3.45;69.05
26376;BME280;30544;42.196;24.336;2023-01-30T01:58:04;99491.31;;;3.29;69.74
26376;BME280;30544;42.196;24.336;2023-01-30T02:00:35;99486.75;;;3.36;70.04
26376;BME280;30544;42.196;24.336;2023-01-30T02:03:06;99487.50;;;3.30;69.39
26376;BME280;30544;42.196;24.336;2023-01-30T02:05:37;99476.69;;;3.22;69.12
26376;BME280;30544;42.196;24.336;2023-01-30T02:08:07;99483.81;;;3.38;69.35
26376;BME280;30544;42.196;24.336;2023-01-30T02:10:42;99471.66;;;3.47;68.35
26376;BME280;30544;42.196;24.336;2023-01-30T02:13:11;99471.00;;;3.23;68.66
26376;BME280;30544;42.196;24.336;2023-01-30T02:15:39;99471.16;;;3.37;68.28
26376;BME280;30544;42.196;24.336;2023-01-30T02:18:06;99473.03;;;3.36;68.75
26376;BME280;30544;42.196;24.336;2023-01-30T02:20:44;99475.00;;;3.42;69.20
26376;BME280;30544;42.196;24.336;2023-01-30T02:23:34;99463.81;;;3.22;69.23
26376;BME280;30544;42.196;24.336;2023-01-30T02:29:54;99474.56;;;3.03;69.40
26376;BME280;30544;42.196;24.336;2023-01-30T02:32:31;99484.63;;;3.17;69.34
26376;BME280;30544;42.196;24.336;2023-01-30T02:35:04;99471.84;;;3.03;69.02
26376;BME280;30544;42.196;24.336;2023-01-30T02:37:45;99473.56;;;3.25;67.36
26376;BME280;30544;42.196;24.336;2023-01-30T02:40:22;99473.13;;;3.07;67.53
26376;BME280;30544;42.196;24.336;2023-01-30T02:43:00;99469.75;;;3.05;69.05
26376;BME280;30544;42.196;24.336;2023-01-30T02:45:35;99463.25;;;2.91;68.94
26376;BME280;30544;42.196;24.336;2023-01-30T02:48:09;99466.44;;;2.94;69.31
26376;BME280;30544;42.196;24.336;2023-01-30T02:50:40;99468.16;;;2.95;69.14
26376;BME280;30544;42.196;24.336;2023-01-30T02:53:09;99466.06;;;2.97;70.02
26376;BME280;30544;42.196;24.336;2023-01-30T02:55:39;99463.97;;;2.99;69.53
26376;BME280;30544;42.196;24.336;2023-01-30T02:58:07;99473.53;;;3.04;70.17
26376;BME280;30544;42.196;24.336;2023-01-30T03:00:45;99464.66;;;3.23;69.58
26376;BME280;30544;42.196;24.336;2023-01-30T03:03:29;99472.94;;;3.08;69.75
26376;BME280;30544;42.196;24.336;2023-01-30T03:06:25;99467.22;;;3.24;69.99
26376;BME280;30544;42.196;24.336;2023-01-30T03:09:05;99478.03;;;3.32;69.29
26376;BME280;30544;42.196;24.336;2023-01-30T03:11:43;99472.75;;;3.10;69.27
26376;BME280;30544;42.196;24.336;2023-01-30T03:14:18;99469.00;;;2.96;70.09
26376;BME280;30544;42.196;24.336;2023-01-30T03:16:51;99462.59;;;2.89;71.11
26376;BME280;30544;42.196;24.336;2023-01-30T03:19:20;99463.03;;;2.71;71.00
26376;BME280;30544;42.196;24.336;2023-01-30T03:21:47;99467.19;;;3.03;70.76
26376;BME280;30544;42.196;24.336;2023-01-30T03:24:14;99455.69;;;2.93;69.92
26376;BME280;30544;42.196;24.336;2023-01-30T03:26:46;99450.69;;;2.82;69.48
26376;BME280;30544;42.196;24.336;2023-01-30T03:29:14;99457.50;;;2.86;69.81
26376;BME280;30544;42.196;24.336;2023-01-30T03:31:41;99461.00;;;2.80;70.34
26376;BME280;30544;42.196;24.336;2023-01-30T03:34:08;99461.75;;;2.88;69.45
26376;BME280;30544;42.196;24.336;2023-01-30T03:36:36;99456.34;;;2.95;68.39
26376;BME280;30544;42.196;24.336;2023-01-30T03:39:03;99452.16;;;2.99;68.25
26376;BME280;30544;42.196;24.336;2023-01-30T03:41:30;99448.56;;;2.98;68.49
26376;BME280;30544;42.196;24.336;2023-01-30T03:43:57;99446.16;;;2.89;67.97
26376;BME280;30544;42.196;24.336;2023-01-30T03:46:23;99441.41;;;2.97;68.22
26376;BME280;30544;42.196;24.336;2023-01-30T03:48:50;99453.94;;;2.70;69.54
26376;BME280;30544;42.196;24.336;2023-01-30T03:51:17;99437.59;;;2.77;68.72
26376;BME280;30544;42.196;24.336;2023-01-30T03:53:45;99449.19;;;2.79;69.07
26376;BME280;30544;42.196;24.336;2023-01-30T03:56:11;99438.06;;;2.66;68.74
26376;BME280;30544;42.196;24.336;2023-01-30T03:58:38;99444.47;;;2.88;68.44
26376;BME280;30544;42.196;24.336;2023-01-30T04:01:05;99450.31;;;2.85;68.76
26376;BME280;30544;42.196;24.336;2023-01-30T04:03:33;99446.91;;;2.83;67.51
26376;BME280;30544;42.196;24.336;2023-01-30T04:06:00;99439.63;;;2.90;68.06
26376;BME280;30544;42.196;24.336;2023-01-30T04:08:26;99443.03;;;2.92;67.34
26376;BME280;30544;42.196;24.336;2023-01-30T04:10:55;99438.59;;;2.91;68.21
26376;BME280;30544;42.196;24.336;2023-01-30T04:13:21;99433.00;;;2.84;67.62
26376;BME280;30544;42.196;24.336;2023-01-30T04:15:48;99422.75;;;3.08;66.87
26376;BME280;30544;42.196;24.336;2023-01-30T04:18:15;99438.66;;;2.97;66.50
26376;BME280;30544;42.196;24.336;2023-01-30T04:20:42;99429.13;;;2.93;66.93
26376;BME280;30544;42.196;24.336;2023-01-30T04:23:08;99431.81;;;2.87;67.92
26376;BME280;30544;42.196;24.336;2023-01-30T04:25:35;99431.94;;;3.00;66.91
26376;BME280;30544;42.196;24.336;2023-01-30T04:28:03;99419.41;;;2.91;66.57
26376;BME280;30544;42.196;24.336;2023-01-30T04:30:30;99425.75;;;2.91;66.53
26376;BME280;30544;42.196;24.336;2023-01-30T04:32:57;99428.84;;;3.03;67.59
26376;BME280;30544;42.196;24.336;2023-01-30T04:35:24;99438.03;;;2.81;67.14
26376;BME280;30544;42.196;24.336;2023-01-30T04:37:50;99434.34;;;2.88;66.39
26376;BME280;30544;42.196;24.336;2023-01-30T04:40:17;99441.47;;;2.68;68.11
26376;BME280;30544;42.196;24.336;2023-01-30T04:42:44;99422.59;;;2.94;67.35
26376;BME280;30544;42.196;24.336;2023-01-30T04:45:12;99431.03;;;2.93;67.41
26376;BME280;30544;42.196;24.336;2023-01-30T04:47:39;99427.53;;;2.84;67.96
26376;BME280;30544;42.196;24.336;2023-01-30T04:50:07;99434.19;;;2.75;67.15
26376;BME280;30544;42.196;24.336;2023-01-30T04:52:34;99427.81;;;2.89;67.60
26376;BME280;30544;42.196;24.336;2023-01-30T04:55:01;99442.38;;;2.90;66.74
26376;BME280;30544;42.196;24.336;2023-01-30T04:57:28;99433.06;;;3.06;67.02
26376;BME280;30544;42.196;24.336;2023-01-30T04:59:54;99434.25;;;2.82;67.08
26376;BME280;30544;42.196;24.336;2023-01-30T05:02:22;99440.13;;;2.79;67.33
26376;BME280;30544;42.196;24.336;2023-01-30T05:04:49;99444.38;;;2.81;67.89
26376;BME280;30544;42.196;24.336;2023-01-30T05:07:17;99434.84;;;2.77;67.07
26376;BME280;30544;42.196;24.336;2023-01-30T05:09:43;99438.16;;;2.72;68.26
26376;BME280;30544;42.196;24.336;2023-01-30T05:12:10;99445.09;;;2.54;69.09
26376;BME280;30544;42.196;24.336;2023-01-30T05:14:37;99443.06;;;2.77;67.11
26376;BME280;30544;42.196;24.336;2023-01-30T05:17:05;99442.00;;;2.93;67.42
26376;BME280;30544;42.196;24.336;2023-01-30T05:19:34;99429.22;;;2.85;67.70
26376;BME280;30544;42.196;24.336;2023-01-30T05:22:01;99433.22;;;2.83;67.52
26376;BME280;30544;42.196;24.336;2023-01-30T05:24:27;99439.13;;;3.01;68.18
26376;BME280;30544;42.196;24.336;2023-01-30T05:26:54;99424.09;;;2.61;68.87
26376;BME280;30544;42.196;24.336;2023-01-30T05:29:21;99434.41;;;2.59;69.56
26376;BME280;30544;42.196;24.336;2023-01-30T05:31:48;99434.66;;;2.64;68.90
26376;BME280;30544;42.196;24.336;2023-01-30T05:34:15;99432.44;;;2.53;69.30
26376;BME280;30544;42.196;24.336;2023-01-30T05:36:43;99433.44;;;2.66;69.11
26376;BME280;30544;42.196;24.336;2023-01-30T05:39:10;99435.97;;;2.68;69.21
26376;BME280;30544;42.196;24.336;2023-01-30T05:41:36;99441.66;;;2.66;68.92
26376;BME280;30544;42.196;24.336;2023-01-30T05:44:04;99447.22;;;2.73;68.95
26376;BME280;30544;42.196;24.336;2023-01-30T05:46:30;99450.19;;;2.57;68.18
26376;BME280;30544;42.196;24.336;2023-01-30T05:48:57;99443.34;;;2.67;68.19
26376;BME280;30544;42.196;24.336;2023-01-30T05:51:25;99446.56;;;2.86;69.13
26376;BME280;30544;42.196;24.336;2023-01-30T05:53:53;99437.88;;;2.67;68.69
26376;BME280;30544;42.196;24.336;2023-01-30T05:56:20;99441.44;;;2.83;68.13
26376;BME280;30544;42.196;24.336;2023-01-30T05:58:51;99447.63;;;2.70;68.29
26376;BME280;30544;42.196;24.336;2023-01-30T06:01:19;99444.31;;;2.75;68.15
26376;BME280;30544;42.196;24.336;2023-01-30T06:03:46;99446.84;;;2.76;68.29
26376;BME280;30544;42.196;24.336;2023-01-30T06:06:13;99448.50;;;2.92;68.19
26376;BME280;30544;42.196;24.336;2023-01-30T06:08:40;99447.47;;;2.93;68.55
26376;BME280;30544;42.196;24.336;2023-01-30T06:11:10;99453.34;;;2.90;68.98
26376;BME280;30544;42.196;24.336;2023-01-30T06:13:37;99456.88;;;3.05;67.94
26376;BME280;30544;42.196;24.336;2023-01-30T06:16:05;99445.63;;;3.00;68.55
26376;BME280;30544;42.196;24.336;2023-01-30T06:18:32;99459.66;;;2.90;68.14
26376;BME280;30544;42.196;24.336;2023-01-30T06:20:59;99458.44;;;2.93;68.62
26376;BME280;30544;42.196;24.336;2023-01-30T06:23:27;99454.81;;;3.07;68.40
26376;BME280;30544;42.196;24.336;2023-01-30T06:25:54;99458.13;;;3.03;68.95
26376;BME280;30544;42.196;24.336;2023-01-30T06:28:23;99457.44;;;3.00;68.24
26376;BME280;30544;42.196;24.336;2023-01-30T06:30:50;99460.78;;;3.17;67.96
26376;BME280;30544;42.196;24.336;2023-01-30T06:33:17;99458.75;;;3.19;68.46
26376;BME280;30544;42.196;24.336;2023-01-30T06:35:44;99464.66;;;3.23;67.81
26376;BME280;30544;42.196;24.336;2023-01-30T06:38:11;99447.38;;;3.22;68.38
26376;BME280;30544;42.196;24.336;2023-01-30T06:40:38;99468.56;;;3.35;68.05
26376;BME280;30544;42.196;24.336;2023-01-30T06:43:05;99463.78;;;3.01;67.35
26376;BME280;30544;42.196;24.336;2023-01-30T06:45:33;99463.63;;;3.24;67.36
26376;BME280;30544;42.196;24.336;2023-01-30T06:48:00;99464.91;;;3.49;66.08
26376;BME280;30544;42.196;24.336;2023-01-30T06:50:28;99457.59;;;3.35;66.59
26376;BME280;30544;42.196;24.336;2023-01-30T06:52:57;99469.25;;;3.37;66.42
26376;BME280;30544;42.196;24.336;2023-01-30T06:55:25;99470.75;;;3.40;67.18
26376;BME280;30544;42.196;24.336;2023-01-30T06:58:00;99470.59;;;3.26;66.87
26376;BME280;30544;42.196;24.336;2023-01-30T07:00:28;99467.94;;;3.54;66.30
26376;BME280;30544;42.196;24.336;2023-01-30T07:02:56;99475.25;;;3.47;66.80
26376;BME280;30544;42.196;24.336;2023-01-30T07:05:23;99466.13;;;3.40;66.86
26376;BME280;30544;42.196;24.336;2023-01-30T07:07:50;99467.88;;;3.48;66.80
26376;BME280;30544;42.196;24.336;2023-01-30T07:10:17;99463.75;;;3.58;65.88
26376;BME280;30544;42.196;24.336;2023-01-30T07:12:44;99469.38;;;3.29;65.55
26376;BME280;30544;42.196;24.336;2023-01-30T07:15:11;99468.78;;;3.55;65.66
26376;BME280;30544;42.196;24.336;2023-01-30T07:17:39;99473.88;;;3.58;65.77
26376;BME280;30544;42.196;24.336;2023-01-30T07:20:08;99470.13;;;3.66;65.21
26376;BME280;30544;42.196;24.336;2023-01-30T07:22:36;99463.69;;;3.52;66.45
26376;BME280;30544;42.196;24.336;2023-01-30T07:25:03;99470.69;;;3.54;65.11
26376;BME280;30544;42.196;24.336;2023-01-30T07:27:30;99469.75;;;3.69;65.09
26376;BME280;30544;42.196;24.336;2023-01-30T07:29:57;99467.94;;;3.54;64.93
26376;BME280;30544;42.196;24.336;2023-01-30T07:32:24;99466.63;;;3.50;64.66
26376;BME280;30544;42.196;24.336;2023-01-30T07:34:51;99469.56;;;3.49;64.96
26376;BME280;30544;42.196;24.336;2023-01-30T07:37:19;99466.28;;;3.81;65.12
26376;BME280;30544;42.196;24.336;2023-01-30T07:39:46;99477.13;;;3.68;64.20
26376;BME280;30544;42.196;24.336;2023-01-30T07:42:13;99467.63;;;3.43;65.77
26376;BME280;30544;42.196;24.336;2023-01-30T07:44:40;99472.50;;;3.47;64.56
26376;BME280;30544;42.196;24.336;2023-01-30T07:47:06;99474.53;;;3.39;65.68
26376;BME280;30544;42.196;24.336;2023-01-30T07:49:33;99467.34;;;3.59;65.38
26376;BME280;30544;42.196;24.336;2023-01-30T07:52:00;99477.53;;;3.65;63.96
26376;BME280;30544;42.196;24.336;2023-01-30T07:54:28;99477.28;;;3.39;66.07
26376;BME280;30544;42.196;24.336;2023-01-30T07:56:55;99469.16;;;3.52;64.71
26376;BME280;30544;42.196;24.336;2023-01-30T07:59:22;99465.31;;;3.46;64.86
26376;BME280;30544;42.196;24.336;2023-01-30T08:01:48;99465.91;;;3.63;64.56
26376;BME280;30544;42.196;24.336;2023-01-30T08:04:15;99468.91;;;3.68;65.08
26376;BME280;30544;42.196;24.336;2023-01-30T08:06:42;99469.00;;;3.81;63.75
26376;BME280;30544;42.196;24.336;2023-01-30T08:09:09;99463.13;;;3.84;65.29
26376;BME280;30544;42.196;24.336;2023-01-30T08:11:37;99464.03;;;3.91;63.95
26376;BME280;30544;42.196;24.336;2023-01-30T08:14:04;99460.19;;;3.86;63.80
26376;BME280;30544;42.196;24.336;2023-01-30T08:16:30;99463.97;;;4.13;64.05
26376;BME280;30544;42.196;24.336;2023-01-30T08:18:58;99462.31;;;3.41;64.33
26376;BME280;30544;42.196;24.336;2023-01-30T08:21:25;99462.72;;;3.59;64.72
26376;BME280;30544;42.196;24.336;2023-01-30T08:23:52;99459.50;;;3.77;63.63
26376;BME280;30544;42.196;24.336;2023-01-30T08:26:19;99457.44;;;4.14;63.81
26376;BME280;30544;42.196;24.336;2023-01-30T08:28:47;99451.78;;;3.87;63.32
26376;BME280;30544;42.196;24.336;2023-01-30T08:31:15;99456.38;;;4.15;62.88
26376;BME280;30544;42.196;24.336;2023-01-30T08:33:42;99447.88;;;3.75;63.15
26376;BME280;30544;42.196;24.336;2023-01-30T08:36:09;99456.41;;;3.87;63.06
26376;BME280;30544;42.196;24.336;2023-01-30T08:38:36;99438.28;;;3.92;63.73
26376;BME280;30544;42.196;24.336;2023-01-30T08:41:04;99445.41;;;4.15;63.17
26376;BME280;30544;42.196;24.336;2023-01-30T08:43:31;99440.25;;;4.33;61.86
26376;BME280;30544;42.196;24.336;2023-01-30T08:46:00;99438.66;;;4.52;61.71
26376;BME280;30544;42.196;24.336;2023-01-30T08:48:26;99436.53;;;4.13;62.32
26376;BME280;30544;42.196;24.336;2023-01-30T08:50:54;99442.13;;;4.26;63.71
26376;BME280;30544;42.196;24.336;2023-01-30T08:53:22;99436.31;;;4.90;62.79
26376;BME280;30544;42.196;24.336;2023-01-30T08:55:49;99442.94;;;4.61;63.00
26376;BME280;30544;42.196;24.336;2023-01-30T08:58:16;99439.66;;;4.38;62.70
26376;BME280;30544;42.196;24.336;2023-01-30T09:00:43;99433.56;;;4.42;63.42
26376;BME280;30544;42.196;24.336;2023-01-30T09:03:13;99426.78;;;4.38;62.23
26376;BME280;30544;42.196;24.336;2023-01-30T09:05:39;99437.41;;;4.55;62.67
26376;BME280;30544;42.196;24.336;2023-01-30T09:08:06;99436.94;;;3.82;62.98
26376;BME280;30544;42.196;24.336;2023-01-30T09:10:33;99437.66;;;4.60;63.17
26376;BME280;30544;42.196;24.336;2023-01-30T09:13:00;99420.94;;;4.55;64.01
26376;BME280;30544;42.196;24.336;2023-01-30T09:15:27;99417.44;;;4.74;62.64
26376;BME280;30544;42.196;24.336;2023-01-30T09:17:53;99422.50;;;4.77;62.95
26376;BME280;30544;42.196;24.336;2023-01-30T09:20:22;99413.84;;;4.87;62.83
26376;BME280;30544;42.196;24.336;2023-01-30T09:22:49;99413.00;;;4.86;62.28
26376;BME280;30544;42.196;24.336;2023-01-30T09:25:16;99403.16;;;5.11;62.52
26376;BME280;30544;42.196;24.336;2023-01-30T09:27:43;99398.88;;;4.89;63.04
26376;BME280;30544;42.196;24.336;2023-01-30T09:30:13;99398.72;;;5.04;61.35
26376;BME280;30544;42.196;24.336;2023-01-30T09:32:40;99397.06;;;5.23;61.56
26376;BME280;30544;42.196;24.336;2023-01-30T09:35:07;99389.41;;;5.11;62.86
26376;BME280;30544;42.196;24.336;2023-01-30T09:37:36;99386.47;;;5.33;61.53
26376;BME280;30544;42.196;24.336;2023-01-30T09:40:04;99377.56;;;5.04;60.10
26376;BME280;30544;42.196;24.336;2023-01-30T09:42:48;99378.53;;;4.77;59.62
26376;BME280;30544;42.196;24.336;2023-01-30T09:45:35;99370.88;;;4.66;58.78
26376;BME280;30544;42.196;24.336;2023-01-30T09:48:12;99365.72;;;5.30;57.74
26376;BME280;30544;42.196;24.336;2023-01-30T09:50:52;99370.63;;;5.48;56.46
26376;BME280;30544;42.196;24.336;2023-01-30T09:53:32;99370.63;;;5.48;54.93
26376;BME280;30544;42.196;24.336;2023-01-30T09:56:01;99358.13;;;4.45;56.38
26376;BME280;30544;42.196;24.336;2023-01-30T09:58:36;99357.22;;;4.99;56.15
26376;BME280;30544;42.196;24.336;2023-01-30T10:01:17;99352.09;;;4.76;56.07
26376;BME280;30544;42.196;24.336;2023-01-30T10:03:55;99347.56;;;5.23;56.19
26376;BME280;30544;42.196;24.336;2023-01-30T10:06:25;99348.81;;;5.33;55.21
26376;BME280;30544;42.196;24.336;2023-01-30T10:09:00;99352.28;;;4.68;55.89
26376;BME280;30544;42.196;24.336;2023-01-30T10:11:39;99339.69;;;4.93;55.08
26376;BME280;30544;42.196;24.336;2023-01-30T10:14:30;99333.97;;;5.01;54.95
26376;BME280;30544;42.196;24.336;2023-01-30T10:17:14;99322.13;;;5.73;53.45
26376;BME280;30544;42.196;24.336;2023-01-30T10:19:57;99326.19;;;5.58;52.54
26376;BME280;30544;42.196;24.336;2023-01-30T10:22:39;99309.25;;;5.08;52.94
26376;BME280;30544;42.196;24.336;2023-01-30T10:25:21;99302.03;;;5.20;53.41
26376;BME280;30544;42.196;24.336;2023-01-30T10:27:53;99306.06;;;5.37;52.46
26376;BME280;30544;42.196;24.336;2023-01-30T10:30:23;99287.38;;;5.99;53.01
26376;BME280;30544;42.196;24.336;2023-01-30T10:32:53;99293.53;;;5.68;52.16
26376;BME280;30544;42.196;24.336;2023-01-30T10:35:22;99287.19;;;5.81;51.80
26376;BME280;30544;42.196;24.336;2023-01-30T10:37:56;99289.56;;;5.44;52.41
26376;BME280;30544;42.196;24.336;2023-01-30T10:40:29;99274.13;;;5.43;52.52
26376;BME280;30544;42.196;24.336;2023-01-30T10:43:05;99268.38;;;5.64;52.83
26376;BME280;30544;42.196;24.336;2023-01-30T10:45:39;99267.09;;;5.67;52.33
26376;BME280;30544;42.196;24.336;2023-01-30T10:48:20;99256.09;;;5.73;52.66
26376;BME280;30544;42.196;24.336;2023-01-30T10:50:52;99251.66;;;5.59;52.67
26376;BME280;30544;42.196;24.336;2023-01-30T10:53:26;99250.66;;;5.40;52.62
26376;BME280;30544;42.196;24.336;2023-01-30T10:56:03;99237.56;;;5.09;52.91
26376;BME280;30544;42.196;24.336;2023-01-30T10:58:40;99233.66;;;5.63;52.08
26376;BME280;30544;42.196;24.336;2023-01-30T11:01:14;99226.09;;;5.32;52.04
26376;BME280;30544;42.196;24.336;2023-01-30T11:03:45;99232.91;;;5.10;52.05
26376;BME280;30544;42.196;24.336;2023-01-30T11:06:15;99221.88;;;5.23;52.06
26376;BME280;30544;42.196;24.336;2023-01-30T11:08:43;99210.88;;;5.30;51.29
26376;BME280;30544;42.196;24.336;2023-01-30T11:11:25;99214.72;;;4.96;51.05
26376;BME280;30544;42.196;24.336;2023-01-30T11:14:00;99199.28;;;4.75;52.61
26376;BME280;30544;42.196;24.336;2023-01-30T11:16:27;99210.25;;;4.55;52.72
26376;BME280;30544;42.196;24.336;2023-01-30T11:18:54;99196.72;;;4.67;53.35
26376;BME280;30544;42.196;24.336;2023-01-30T11:21:25;99188.00;;;5.42;52.31
26376;BME280;30544;42.196;24.336;2023-01-30T11:23:53;99192.72;;;4.82;51.36
26376;BME280;30544;42.196;24.336;2023-01-30T11:26:23;99181.03;;;5.40;51.32
26376;BME280;30544;42.196;24.336;2023-01-30T11:28:50;99166.00;;;5.36;50.94
26376;BME280;30544;42.196;24.336;2023-01-30T11:31:19;99171.94;;;5.20;51.17
26376;BME280;30544;42.196;24.336;2023-01-30T11:33:59;99166.88;;;5.30;51.77
26376;BME280;30544;42.196;24.336;2023-01-30T11:36:28;99162.19;;;5.43;51.20
26376;BME280;30544;42.196;24.336;2023-01-30T11:39:00;99155.25;;;5.28;51.57
26376;BME280;30544;42.196;24.336;2023-01-30T11:41:30;99147.19;;;5.20;51.55
26376;BME280;30544;42.196;24.336;2023-01-30T11:44:00;99140.50;;;5.73;50.70
26376;BME280;30544;42.196;24.336;2023-01-30T11:46:30;99134.75;;;5.10;52.06
26376;BME280;30544;42.196;24.336;2023-01-30T11:49:00;99133.22;;;5.34;52.08
26376;BME280;30544;42.196;24.336;2023-01-30T11:51:32;99125.03;;;5.21;52.37
26376;BME280;30544;42.196;24.336;2023-01-30T11:54:02;99125.09;;;4.75;53.71
26376;BME280;30544;42.196;24.336;2023-01-30T11:56:33;99116.56;;;5.09;53.71
26376;BME280;30544;42.196;24.336;2023-01-30T11:59:03;99113.63;;;5.04;52.71
26376;BME280;30544;42.196;24.336;2023-01-30T12:01:32;99107.69;;;5.07;53.24
26376;BME280;30544;42.196;24.336;2023-01-30T12:04:00;99096.25;;;5.24;53.93
26376;BME280;30544;42.196;24.336;2023-01-30T12:06:29;99102.28;;;4.55;53.85
26376;BME280;30544;42.196;24.336;2023-01-30T12:08:57;99095.72;;;4.49;54.41
26376;BME280;30544;42.196;24.336;2023-01-30T12:11:30;99094.22;;;4.46;54.07
26376;BME280;30544;42.196;24.336;2023-01-30T12:14:33;99074.47;;;5.16;53.48
26376;BME280;30544;42.196;24.336;2023-01-30T12:17:12;99074.50;;;5.02;53.98
26376;BME280;30544;42.196;24.336;2023-01-30T12:19:56;99085.94;;;4.93;53.60
26376;BME280;30544;42.196;24.336;2023-01-30T12:22:31;99084.91;;;4.80;55.28
26376;BME280;30544;42.196;24.336;2023-01-30T12:25:03;99083.22;;;4.66;54.83
26376;BME280;30544;42.196;24.336;2023-01-30T12:27:40;99068.81;;;4.97;53.65
26376;BME280;30544;42.196;24.336;2023-01-30T12:30:20;99068.19;;;4.95;53.98
26376;BME280;30544;42.196;24.336;2023-01-30T12:32:48;99069.28;;;4.68;54.23
26376;BME280;30544;42.196;24.336;2023-01-30T12:35:16;99070.50;;;4.98;54.49
26376;BME280;30544;42.196;24.336;2023-01-30T12:37:51;99068.44;;;4.74;54.77
26376;BME280;30544;42.196;24.336;2023-01-30T12:40:29;99062.88;;;5.07;54.71
26376;BME280;30544;42.196;24.336;2023-01-30T12:46:14;99055.53;;;4.68;54.91
26376;BME280;30544;42.196;24.336;2023-01-30T12:49:05;99052.25;;;5.24;53.89
26376;BME280;30544;42.196;24.336;2023-01-30T12:51:50;99053.53;;;5.14;53.47
26376;BME280;30544;42.196;24.336;2023-01-30T12:54:30;99045.63;;;4.60;55.23
26376;BME280;30544;42.196;24.336;2023-01-30T12:57:11;99047.75;;;4.45;55.16
26376;BME280;30544;42.196;24.336;2023-01-30T12:59:46;99046.50;;;4.54;55.30
26376;BME280;30544;42.196;24.336;2023-01-30T13:02:31;99042.25;;;4.65;54.00
26376;BME280;30544;42.196;24.336;2023-01-30T13:05:21;99033.84;;;4.40;55.39
26376;BME280;30544;42.196;24.336;2023-01-30T13:08:04;99029.34;;;4.72;55.01
26376;BME280;30544;42.196;24.336;2023-01-30T13:10:38;99019.38;;;4.84;54.41
26376;BME280;30544;42.196;24.336;2023-01-30T13:13:13;99023.69;;;4.40;54.77
26376;BME280;30544;42.196;24.336;2023-01-30T13:15:45;99023.69;;;4.53;54.64
26376;BME280;30544;42.196;24.336;2023-01-30T13:18:22;99010.53;;;4.75;53.85
26376;BME280;30544;42.196;24.336;2023-01-30T13:20:55;99027.44;;;4.52;54.74
26376;BME280;30544;42.196;24.336;2023-01-30T13:23:30;99017.25;;;4.93;53.97